Time;durP1;ratioP1;P1;durP2;ratioP2;P2;SDS_P1;SDS_P2;PMS_P1;PMS_P2;Temp;Humidity;BMP_temperature;BMP_pressure;BME280_temperature;BME280_humidity;BME280_pressure;Samples;Min_cycle;Max_cycle;Signal;HPM_P1;HPM_P2
2021/06/10 00:00:49;;;;;;;9.17;7.70;;;16.20;99.90;;;;;;5053387;28;20244;-60
2021/06/10 00:03:18;;;;;;;9.03;8.00;;;16.20;99.90;;;;;;5053113;28;20734;-60
2021/06/10 00:05:45;;;;;;;8.40;7.60;;;16.20;99.90;;;;;;5053527;28;20205;-60
2021/06/10 00:08:11;;;;;;;8.70;7.70;;;16.20;99.90;;;;;;5053257;28;20205;-60
2021/06/10 00:10:40;;;;;;;9.50;8.57;;;16.30;99.90;;;;;;5053071;28;20584;-60
2021/06/10 00:13:06;;;;;;;9.17;7.87;;;16.30;99.90;;;;;;5053001;28;20237;-60
2021/06/10 00:15:34;;;;;;;9.77;8.77;;;16.30;99.90;;;;;;5052866;28;20485;-63
2021/06/10 00:18:02;;;;;;;8.87;8.00;;;16.30;99.90;;;;;;5052900;28;20216;-60
2021/06/10 00:20:32;;;;;;;9.70;8.50;;;16.30;99.90;;;;;;5052611;28;20206;-60
2021/06/10 00:22:59;;;;;;;9.47;7.70;;;16.30;99.90;;;;;;5052261;28;20226;-62
2021/06/10 00:25:27;;;;;;;8.80;7.90;;;16.30;99.90;;;;;;5052270;28;20255;-61
2021/06/10 00:27:53;;;;;;;9.23;7.63;;;16.30;99.90;;;;;;5052219;28;20233;-59
2021/06/10 00:30:20;;;;;;;8.50;7.70;;;16.30;99.90;;;;;;5052454;28;20206;-59
2021/06/10 00:32:48;;;;;;;9.27;8.27;;;16.30;99.90;;;;;;5052349;28;20233;-59
2021/06/10 00:35:16;;;;;;;9.37;8.33;;;16.30;99.90;;;;;;5052371;28;20202;-59
2021/06/10 00:37:44;;;;;;;8.93;8.07;;;16.30;99.90;;;;;;5052210;28;20584;-59
2021/06/10 00:40:12;;;;;;;9.63;8.63;;;16.40;99.90;;;;;;5052123;28;20205;-59
2021/06/10 00:42:39;;;;;;;10.43;9.37;;;16.40;99.90;;;;;;5052200;28;20233;-59
2021/06/10 00:45:07;;;;;;;10.37;7.67;;;16.30;99.90;;;;;;5051853;28;20625;-59
2021/06/10 00:47:33;;;;;;;9.20;8.30;;;16.30;99.90;;;;;;5052021;28;20688;-59
2021/06/10 00:49:59;;;;;;;8.17;7.43;;;16.30;99.90;;;;;;5052142;28;20205;-59
2021/06/10 00:52:25;;;;;;;8.83;7.93;;;16.30;99.90;;;;;;5052142;28;20236;-59
2021/06/10 00:54:53;;;;;;;9.40;8.40;;;16.30;99.90;;;;;;5052043;28;20623;-59
2021/06/10 00:57:19;;;;;;;9.00;8.10;;;16.30;99.90;;;;;;5052251;28;20202;-60
2021/06/10 00:59:45;;;;;;;10.10;9.07;;;16.30;99.90;;;;;;5051901;28;20201;-59
2021/06/10 01:02:11;;;;;;;11.40;8.33;;;16.20;99.90;;;;;;5051857;28;20238;-59
2021/06/10 01:04:37;;;;;;;9.70;8.70;;;16.00;99.90;;;;;;5051618;28;20216;-61
2021/06/10 01:07:10;;;;;;;9.33;8.53;;;16.00;99.90;;;;;;5051541;28;20534;-59
2021/06/10 01:09:42;;;;;;;10.50;8.70;;;15.90;99.90;;;;;;5051823;28;20209;-59
2021/06/10 01:12:18;;;;;;;10.67;8.03;;;16.00;99.90;;;;;;5051642;28;20229;-59
2021/06/10 01:14:54;;;;;;;9.03;8.13;;;15.90;99.90;;;;;;5050480;28;20209;-59
2021/06/10 01:17:22;;;;;;;8.90;8.00;;;15.90;99.90;;;;;;5051644;28;20235;-59
2021/06/10 01:20:07;;;;;;;9.07;8.17;;;15.90;99.90;;;;;;5051612;28;20209;-59
2021/06/10 01:22:40;;;;;;;9.23;8.33;;;15.80;99.90;;;;;;5051376;28;20241;-59
2021/06/10 01:25:14;;;;;;;8.87;8.07;;;15.80;99.90;;;;;;5051226;28;20209;-59
2021/06/10 01:27:45;;;;;;;12.30;8.70;;;15.80;99.90;;;;;;5051202;28;20224;-59
2021/06/10 01:30:14;;;;;;;9.63;8.73;;;15.80;99.90;;;;;;5051350;28;20209;-59
2021/06/10 01:32:46;;;;;;;9.37;8.47;;;15.80;99.90;;;;;;5050983;28;20783;-59
2021/06/10 01:35:14;;;;;;;11.00;8.87;;;15.80;99.90;;;;;;5051163;28;20232;-59
2021/06/10 01:37:42;;;;;;;10.53;9.50;;;15.80;99.90;;;;;;5050966;28;20236;-59
2021/06/10 01:40:10;;;;;;;10.97;9.13;;;15.80;99.90;;;;;;5051011;28;20217;-60
2021/06/10 01:42:38;;;;;;;11.20;9.37;;;15.80;99.90;;;;;;5050997;28;20236;-59
2021/06/10 01:45:09;;;;;;;10.20;9.20;;;15.80;99.90;;;;;;5051170;28;20210;-59
2021/06/10 01:47:37;;;;;;;10.87;9.80;;;15.80;99.90;;;;;;5051261;28;20201;-59
2021/06/10 01:50:04;;;;;;;10.50;9.50;;;15.90;99.90;;;;;;5051156;28;20209;-59
2021/06/10 01:52:32;;;;;;;10.27;9.30;;;15.80;99.90;;;;;;5092229;22;20228;-59
2021/06/10 01:54:59;;;;;;;10.33;9.27;;;15.80;99.90;;;;;;5090905;28;20557;-60
2021/06/10 01:57:27;;;;;;;9.97;8.97;;;15.80;99.90;;;;;;5091056;28;20702;-60
2021/06/10 01:59:55;;;;;;;13.47;10.27;;;15.80;99.90;;;;;;5091117;28;20200;-60
2021/06/10 02:02:23;;;;;;;10.60;9.50;;;15.80;99.90;;;;;;5091043;28;20235;-60
2021/06/10 02:04:50;;;;;;;9.87;8.87;;;15.80;99.90;;;;;;5091139;28;20258;-60
2021/06/10 02:07:19;;;;;;;10.87;9.57;;;15.80;99.90;;;;;;5091030;28;20226;-59
2021/06/10 02:09:45;;;;;;;10.30;9.00;;;15.70;99.90;;;;;;5090812;28;20261;-60
2021/06/10 02:12:12;;;;;;;10.07;9.17;;;15.70;99.90;;;;;;5090930;28;20220;-60
2021/06/10 02:14:42;;;;;;;10.63;9.63;;;15.70;99.90;;;;;;5090940;28;20200;-59
2021/06/10 02:17:09;;;;;;;10.70;9.70;;;15.70;99.90;;;;;;5091197;28;20204;-60
2021/06/10 02:19:38;;;;;;;10.27;9.13;;;15.60;99.90;;;;;;5090995;28;20254;-60
2021/06/10 02:22:04;;;;;;;10.37;9.27;;;15.50;99.90;;;;;;5091079;28;20625;-60
2021/06/10 02:24:31;;;;;;;12.80;9.07;;;15.50;99.90;;;;;;5091092;28;20207;-59
2021/06/10 02:26:58;;;;;;;9.53;8.63;;;15.50;99.90;;;;;;5095151;28;20204;-60
2021/06/10 02:29:24;;;;;;;10.17;8.73;;;15.40;99.90;;;;;;5095068;28;20211;-60
2021/06/10 02:31:51;;;;;;;10.37;9.27;;;15.30;99.90;;;;;;5095007;28;20220;-59
2021/06/10 02:34:17;;;;;;;9.70;8.67;;;15.30;99.90;;;;;;5094562;28;20663;-59
2021/06/10 02:36:47;;;;;;;13.27;9.57;;;15.30;99.90;;;;;;5094776;28;20224;-59
2021/06/10 02:39:16;;;;;;;10.90;9.80;;;15.20;99.90;;;;;;5094971;28;20208;-59
2021/06/10 02:41:47;;;;;;;11.17;8.90;;;15.20;99.90;;;;;;5094607;28;20224;-59
2021/06/10 02:44:14;;;;;;;11.27;10.17;;;15.10;99.90;;;;;;5094811;28;20277;-60
2021/06/10 02:46:42;;;;;;;14.37;11.20;;;15.10;99.90;;;;;;5094839;28;20208;-60
2021/06/10 02:49:09;;;;;;;13.23;10.53;;;15.00;99.90;;;;;;5094234;28;20671;-59
2021/06/10 02:51:37;;;;;;;12.10;10.80;;;15.10;99.90;;;;;;5094493;28;20203;-60
2021/06/10 02:54:08;;;;;;;12.40;11.20;;;15.20;99.90;;;;;;5094282;28;20204;-60
2021/06/10 02:56:35;;;;;;;12.63;11.33;;;15.20;99.90;;;;;;5094453;28;20208;-59
2021/06/10 02:59:03;;;;;;;12.13;10.83;;;15.20;99.90;;;;;;5094375;28;20431;-60
2021/06/10 03:01:30;;;;;;;12.00;10.87;;;15.20;99.90;;;;;;5094314;28;20249;-59
2021/06/10 03:03:57;;;;;;;14.33;11.17;;;15.30;99.90;;;;;;5093954;28;20211;-59
2021/06/10 03:06:24;;;;;;;13.17;11.97;;;15.30;99.90;;;;;;5094500;28;20209;-59
2021/06/10 03:08:51;;;;;;;15.10;12.00;;;15.30;99.90;;;;;;5094239;28;20200;-60
2021/06/10 03:11:20;;;;;;;14.67;11.83;;;15.40;99.90;;;;;;5094079;28;20197;-60
2021/06/10 03:13:48;;;;;;;12.40;10.67;;;15.40;99.90;;;;;;5093894;28;20589;-59
2021/06/10 03:16:15;;;;;;;13.43;11.27;;;15.40;99.90;;;;;;5093894;28;20218;-60
2021/06/10 03:18:42;;;;;;;12.60;11.40;;;15.40;99.90;;;;;;5094103;28;20208;-60
2021/06/10 03:21:09;;;;;;;11.93;10.83;;;15.40;99.90;;;;;;5094206;28;20257;-60
2021/06/10 03:23:35;;;;;;;11.00;9.97;;;15.40;99.90;;;;;;5093885;28;20699;-60
2021/06/10 03:26:03;;;;;;;11.97;10.77;;;15.40;99.90;;;;;;5093996;28;20204;-59
2021/06/10 03:28:32;;;;;;;12.47;11.17;;;15.40;99.90;;;;;;5093955;28;20250;-59
2021/06/10 03:30:59;;;;;;;12.27;10.83;;;15.50;99.90;;;;;;5093729;28;20262;-59
2021/06/10 03:33:26;;;;;;;11.80;10.57;;;15.40;99.90;;;;;;5093663;28;20230;-60
2021/06/10 03:35:54;;;;;;;12.03;10.83;;;15.40;99.90;;;;;;5094127;28;20204;-59
2021/06/10 03:38:22;;;;;;;10.73;9.43;;;15.40;99.90;;;;;;5092357;28;20647;-59
2021/06/10 03:40:50;;;;;;;11.10;9.90;;;15.40;99.90;;;;;;5093459;28;20212;-59
2021/06/10 03:43:17;;;;;;;11.77;10.57;;;15.40;99.90;;;;;;5093066;28;20232;-60
2021/06/10 03:45:45;;;;;;;11.10;10.00;;;15.40;99.90;;;;;;5093437;28;20215;-60
2021/06/10 03:48:11;;;;;;;11.63;10.50;;;15.40;99.90;;;;;;5093918;28;20204;-60
2021/06/10 03:50:37;;;;;;;11.83;10.13;;;15.40;99.90;;;;;;5093842;28;20215;-59
2021/06/10 03:53:04;;;;;;;11.10;9.73;;;15.50;99.90;;;;;;5093311;28;20232;-60
2021/06/10 03:55:30;;;;;;;10.37;9.37;;;15.50;99.90;;;;;;5093033;28;20680;-60
2021/06/10 03:57:56;;;;;;;10.50;9.50;;;15.60;99.90;;;;;;5093049;28;20215;-60
2021/06/10 04:00:23;;;;;;;10.50;9.50;;;15.60;99.90;;;;;;5093579;28;20208;-60
2021/06/10 04:02:50;;;;;;;9.40;8.50;;;15.70;99.90;;;;;;5092986;28;20232;-60
2021/06/10 04:05:16;;;;;;;10.20;9.20;;;15.80;99.90;;;;;;5092736;28;20211;-60
2021/06/10 04:07:43;;;;;;;10.40;9.40;;;15.90;99.90;;;;;;5093070;28;20208;-60
2021/06/10 04:10:10;;;;;;;10.20;9.30;;;15.90;99.90;;;;;;5092898;28;20679;-60
2021/06/10 04:12:36;;;;;;;10.43;9.47;;;16.00;99.90;;;;;;5092877;28;20605;-60
2021/06/10 04:15:03;;;;;;;10.40;8.67;;;16.20;99.90;;;;;;5092965;28;20204;-60
2021/06/10 04:17:29;;;;;;;11.40;10.30;;;16.30;99.90;;;;;;5092700;28;20667;-60
2021/06/10 04:19:57;;;;;;;12.97;10.60;;;16.50;99.90;;;;;;5092792;28;20212;-60
2021/06/10 04:22:23;;;;;;;10.30;9.30;;;16.60;99.90;;;;;;5092817;28;20224;-60
2021/06/10 04:24:49;;;;;;;10.20;8.77;;;16.80;99.90;;;;;;5092552;28;20204;-60
2021/06/10 04:27:16;;;;;;;9.80;8.70;;;16.90;99.90;;;;;;5092641;28;20208;-60
2021/06/10 04:29:43;;;;;;;11.00;9.10;;;17.00;99.90;;;;;;5092605;28;20205;-60
2021/06/10 04:32:09;;;;;;;13.13;11.73;;;17.20;99.90;;;;;;5092598;28;20220;-60
2021/06/10 04:34:35;;;;;;;14.63;11.77;;;17.30;99.90;;;;;;5092957;28;20205;-60
2021/06/10 04:37:03;;;;;;;10.00;8.17;;;17.50;99.90;;;;;;5092960;28;20242;-60
2021/06/10 04:39:29;;;;;;;10.63;9.60;;;17.60;99.90;;;;;;5092298;28;20204;-60
2021/06/10 04:41:56;;;;;;;12.33;11.03;;;17.70;99.90;;;;;;5092113;28;20289;-60
2021/06/10 04:44:22;;;;;;;11.35;9.68;;;18.00;99.90;;;;;;5092308;28;20230;-60
2021/06/10 04:46:48;;;;;;;8.30;7.55;;;18.20;99.90;;;;;;5092121;28;20204;-60
2021/06/10 04:49:14;;;;;;;8.77;7.97;;;18.70;99.90;;;;;;5091863;28;20219;-60
2021/06/10 04:51:41;;;;;;;19.63;16.88;;;19.50;99.90;;;;;;5091863;28;20196;-60
2021/06/10 04:54:08;;;;;;;6.47;5.78;;;20.50;99.90;;;;;;5091974;28;20204;-60
2021/06/10 04:56:35;;;;;;;5.82;5.20;;;21.60;99.90;;;;;;5092042;28;20212;-60
2021/06/10 04:59:01;;;;;;;7.75;5.15;;;22.80;99.90;;;;;;5092082;28;20212;-60
2021/06/10 05:01:27;;;;;;;5.50;5.00;;;23.80;99.90;;;;;;5091814;28;20269;-60
2021/06/10 05:03:53;;;;;;;5.70;5.20;;;24.70;99.90;;;;;;5091800;28;20208;-60
2021/06/10 05:06:19;;;;;;;5.18;4.70;;;25.50;99.90;;;;;;5091678;28;20204;-60
2021/06/10 05:08:46;;;;;;;5.90;5.30;;;26.20;99.90;;;;;;5091507;28;20701;-60
2021/06/10 05:11:13;;;;;;;4.95;4.45;;;26.90;99.90;;;;;;5091997;28;20209;-60
2021/06/10 05:13:40;;;;;;;5.90;4.82;;;27.60;99.90;;;;;;5091534;28;20224;-60
2021/06/10 05:16:06;;;;;;;5.07;4.68;;;28.30;99.90;;;;;;5091726;28;20623;-60
2021/06/10 05:18:32;;;;;;;5.95;5.45;;;28.80;98.00;;;;;;5091998;28;20204;-60
2021/06/10 05:20:58;;;;;;;6.65;5.40;;;29.10;96.50;;;;;;5091735;28;20219;-60
2021/06/10 05:23:25;;;;;;;5.30;4.82;;;29.50;96.20;;;;;;5091375;28;20251;-60
2021/06/10 05:25:52;;;;;;;5.20;3.75;;;30.00;94.70;;;;;;5091959;28;20204;-60
2021/06/10 05:28:19;;;;;;;8.23;4.10;;;30.50;93.40;;;;;;5091980;28;20208;-61
2021/06/10 05:30:45;;;;;;;4.95;3.67;;;31.10;91.20;;;;;;5092427;28;20572;-61
2021/06/10 05:33:11;;;;;;;4.00;3.70;;;31.20;87.40;;;;;;5091773;28;20274;-61
2021/06/10 05:35:38;;;;;;;5.13;4.15;;;30.80;88.40;;;;;;5091693;28;20204;-61
2021/06/10 05:38:04;;;;;;;4.45;3.30;;;30.90;89.60;;;;;;5091372;28;20199;-61
2021/06/10 05:40:30;;;;;;;5.72;3.97;;;31.50;85.30;;;;;;5092034;28;20211;-61
2021/06/10 05:42:56;;;;;;;3.65;3.33;;;31.90;83.10;;;;;;5091695;28;20243;-61
2021/06/10 05:45:24;;;;;;;4.80;3.90;;;32.10;81.20;;;;;;5091426;28;20208;-61
2021/06/10 05:47:50;;;;;;;6.85;4.30;;;32.40;80.90;;;;;;5091417;28;20626;-62
2021/06/10 05:50:16;;;;;;;4.95;4.45;;;33.20;77.90;;;;;;5091754;28;20211;-63
2021/06/10 05:52:43;;;;;;;6.25;4.80;;;34.00;75.60;;;;;;5091631;28;20242;-62
2021/06/10 05:55:10;;;;;;;5.68;5.13;;;34.50;71.00;;;;;;5091730;28;20290;-61
2021/06/10 05:57:37;;;;;;;7.05;5.28;;;33.20;73.30;;;;;;5091328;28;20636;-61
2021/06/10 06:00:05;;;;;;;9.35;5.68;;;31.20;79.30;;;;;;5090913;28;20563;-62
2021/06/10 06:02:33;;;;;;;5.10;4.70;;;31.30;81.10;;;;;;5091242;28;20236;-62
2021/06/10 06:04:59;;;;;;;7.22;4.60;;;31.90;79.20;;;;;;5091765;28;20204;-63
2021/06/10 06:07:26;;;;;;;6.15;5.65;;;32.40;77.50;;;;;;5091244;28;20208;-64
2021/06/10 06:09:52;;;;;;;5.97;5.47;;;32.60;76.20;;;;;;5091683;28;20204;-64
2021/06/10 06:12:21;;;;;;;6.63;5.60;;;33.20;73.40;;;;;;5091363;28;20223;-63
2021/06/10 06:14:47;;;;;;;5.60;4.88;;;33.20;72.80;;;;;;5091139;28;20207;-63
2021/06/10 06:17:15;;;;;;;5.47;4.80;;;32.20;75.10;;;;;;5091179;28;20694;-63
2021/06/10 06:19:43;;;;;;;7.60;4.57;;;32.40;75.00;;;;;;5091227;28;20210;-65
2021/06/10 06:22:10;;;;;;;5.63;4.80;;;32.60;74.40;;;;;;5090811;28;20232;-62
2021/06/10 06:24:37;;;;;;;5.95;4.57;;;31.50;77.00;;;;;;5091037;28;20200;-62
2021/06/10 06:27:03;;;;;;;7.97;5.18;;;31.80;76.70;;;;;;5091272;28;20561;-63
2021/06/10 06:29:29;;;;;;;7.25;4.90;;;32.50;75.50;;;;;;5090814;28;20204;-62
2021/06/10 06:31:56;;;;;;;5.38;4.63;;;33.80;73.00;;;;;;5090811;28;20224;-63
2021/06/10 06:34:22;;;;;;;6.57;5.63;;;33.40;71.80;;;;;;5090489;28;20208;-63
2021/06/10 06:36:50;;;;;;;5.05;4.55;;;33.10;73.20;;;;;;5090969;28;20239;-63
2021/06/10 06:39:17;;;;;;;5.65;5.03;;;33.90;71.10;;;;;;5091027;28;20201;-63
2021/06/10 06:41:43;;;;;;;8.40;5.32;;;35.20;68.60;;;;;;5090944;28;20606;-63
2021/06/10 06:44:10;;;;;;;8.15;5.65;;;36.30;64.70;;;;;;5090539;28;20204;-64
2021/06/10 06:46:36;;;;;;;7.55;5.18;;;36.90;61.60;;;;;;5090633;28;20211;-65
2021/06/10 06:49:03;;;;;;;5.50;4.93;;;36.20;62.40;;;;;;5090717;28;20253;-64
2021/06/10 06:51:29;;;;;;;5.10;4.60;;;35.60;63.10;;;;;;5091213;28;20581;-64
2021/06/10 06:53:57;;;;;;;5.53;5.03;;;35.30;64.50;;;;;;5091178;28;20300;-65
2021/06/10 06:56:24;;;;;;;8.50;5.13;;;34.70;66.10;;;;;;5090774;28;20208;-66
2021/06/10 06:58:50;;;;;;;7.35;4.60;;;34.70;67.00;;;;;;5090367;28;20201;-63
2021/06/10 07:01:16;;;;;;;5.82;4.90;;;35.40;64.10;;;;;;5068798;28;20223;-65
2021/06/10 07:03:43;;;;;;;6.90;5.20;;;36.20;62.10;;;;;;5069889;28;20229;-66
2021/06/10 07:06:09;;;;;;;6.47;4.35;;;37.40;60.10;;;;;;5070073;28;20211;-66
2021/06/10 07:08:35;;;;;;;8.90;5.55;;;38.30;57.40;;;;;;5070100;28;20673;-65
2021/06/10 07:11:06;;;;;;;6.20;5.35;;;39.00;56.40;;;;;;5070407;28;20205;-66
2021/06/10 07:13:32;;;;;;;5.05;4.55;;;39.80;54.30;;;;;;5072848;28;20267;-65
2021/06/10 07:15:59;;;;;;;8.18;4.85;;;40.40;52.20;;;;;;5073483;28;20201;-66
2021/06/10 07:18:25;;;;;;;7.20;4.97;;;40.90;51.00;;;;;;5073747;28;20572;-65
2021/06/10 07:20:52;;;;;;;6.38;5.28;;;41.30;49.40;;;;;;5074726;28;20671;-65
2021/06/10 07:23:18;;;;;;;7.63;5.05;;;41.20;49.20;;;;;;5074161;28;20236;-65
2021/06/10 07:25:44;;;;;;;9.15;4.63;;;40.90;49.10;;;;;;5073894;28;20565;-63
2021/06/10 07:28:12;;;;;;;4.60;4.20;;;40.80;49.50;;;;;;5073895;28;20201;-64
2021/06/10 07:30:38;;;;;;;4.75;4.20;;;40.70;48.80;;;;;;5078053;28;20208;-65
2021/06/10 07:33:05;;;;;;;4.97;4.47;;;40.70;48.30;;;;;;5077067;28;20217;-65
2021/06/10 07:35:33;;;;;;;5.45;4.85;;;40.90;48.30;;;;;;5075370;28;20212;-60
2021/06/10 07:38:00;;;;;;;5.30;4.80;;;40.60;48.00;;;;;;5073370;28;20695;-60
2021/06/10 07:40:28;;;;;;;5.65;5.13;;;39.70;49.90;;;;;;5073706;28;20208;-60
2021/06/10 07:42:55;;;;;;;6.32;5.72;;;38.30;51.20;;;;;;5073110;28;20232;-59
2021/06/10 07:45:25;;;;;;;6.35;5.53;;;37.10;53.60;;;;;;5073083;28;20209;-59
2021/06/10 07:47:51;;;;;;;10.15;8.15;;;35.90;56.10;;;;;;5073355;28;20201;-60
2021/06/10 07:50:17;;;;;;;6.68;5.15;;;35.20;57.60;;;;;;5073237;28;20274;-59
2021/06/10 07:52:44;;;;;;;6.57;5.65;;;34.90;58.10;;;;;;5073464;28;20712;-59
2021/06/10 07:55:11;;;;;;;7.03;5.70;;;34.70;59.20;;;;;;5073001;28;20201;-58
2021/06/10 07:57:37;;;;;;;6.90;5.93;;;35.30;58.00;;;;;;5072933;28;20209;-58
2021/06/10 08:00:05;;;;;;;7.63;5.40;;;36.60;55.90;;;;;;5073036;28;20201;-59
2021/06/10 08:02:33;;;;;;;6.47;5.20;;;37.60;54.70;;;;;;5073108;28;20237;-59
2021/06/10 08:05:00;;;;;;;7.57;4.22;;;38.90;52.20;;;;;;5072745;28;20207;-59
2021/06/10 08:07:26;;;;;;;5.15;4.57;;;39.90;49.70;;;;;;5072925;28;20726;-59
2021/06/10 08:09:52;;;;;;;5.22;4.72;;;40.80;48.70;;;;;;5073240;28;20215;-59
2021/06/10 08:12:18;;;;;;;5.53;4.53;;;41.20;47.50;;;;;;5072461;28;20221;-59
2021/06/10 08:14:44;;;;;;;6.35;5.20;;;41.20;47.70;;;;;;5072843;28;20278;-59
2021/06/10 08:17:11;;;;;;;5.80;5.28;;;41.00;47.50;;;;;;5072839;28;20212;-59
2021/06/10 08:19:38;;;;;;;5.60;5.00;;;41.30;47.40;;;;;;5072549;28;20671;-58
2021/06/10 08:22:04;;;;;;;5.55;5.00;;;41.70;46.50;;;;;;5072403;28;20225;-58
2021/06/10 08:24:31;;;;;;;5.25;4.75;;;42.00;46.00;;;;;;5072001;28;20238;-59
2021/06/10 08:26:57;;;;;;;5.70;4.78;;;42.40;45.50;;;;;;5072139;28;20559;-59
2021/06/10 08:29:27;;;;;;;5.45;4.95;;;42.60;44.80;;;;;;5072536;28;20204;-59
2021/06/10 08:31:54;;;;;;;5.80;5.30;;;42.60;43.90;;;;;;5072571;28;20289;-59
2021/06/10 08:34:20;;;;;;;5.20;4.70;;;42.40;44.20;;;;;;5072555;28;20320;-59
2021/06/10 08:36:48;;;;;;;5.00;4.60;;;42.50;44.30;;;;;;5072365;28;20587;-59
2021/06/10 08:39:15;;;;;;;6.00;5.32;;;42.40;44.20;;;;;;5072166;28;20204;-59
2021/06/10 08:41:42;;;;;;;5.53;5.03;;;42.10;44.40;;;;;;5072294;28;20204;-59
2021/06/10 08:44:08;;;;;;;6.32;5.60;;;41.80;44.80;;;;;;5072175;28;20204;-59
2021/06/10 08:46:35;;;;;;;6.53;5.85;;;41.00;45.40;;;;;;5071986;28;20209;-58
2021/06/10 08:49:04;;;;;;;5.90;5.30;;;39.90;46.90;;;;;;5071925;28;20201;-59
2021/06/10 08:51:30;;;;;;;6.68;5.80;;;38.70;49.10;;;;;;5071501;28;20311;-59
2021/06/10 08:53:58;;;;;;;7.72;6.30;;;37.80;50.70;;;;;;5071447;28;20212;-59
2021/06/10 08:56:25;;;;;;;6.28;5.57;;;37.10;51.30;;;;;;5071723;28;20209;-58
2021/06/10 08:58:51;;;;;;;6.93;6.32;;;36.50;52.60;;;;;;5071199;28;20597;-59
2021/06/10 09:01:17;;;;;;;6.60;6.00;;;35.90;53.60;;;;;;5071256;28;20212;-59
2021/06/10 09:03:43;;;;;;;7.72;7.03;;;35.20;54.30;;;;;;5071263;28;20240;-58
2021/06/10 09:06:12;;;;;;;9.75;6.13;;;34.50;55.60;;;;;;5071579;28;20251;-59
2021/06/10 09:08:39;;;;;;;7.22;6.60;;;34.00;56.40;;;;;;5071157;28;20201;-59
2021/06/10 09:11:11;;;;;;;9.57;7.10;;;33.50;57.40;;;;;;5071601;28;20266;-58
2021/06/10 09:13:40;;;;;;;8.27;7.50;;;33.10;58.90;;;;;;5071217;28;20657;-58
2021/06/10 09:16:37;;;;;;;7.80;7.10;;;32.70;59.70;;;;;;5071343;28;20209;-58
2021/06/10 09:19:08;;;;;;;8.18;7.38;;;32.30;60.90;;;;;;5008936;28;20214;-58
2021/06/10 09:21:36;;;;;;;15.77;14.23;;;32.00;62.70;;;;;;5058850;28;20682;-58
2021/06/10 09:24:31;;;;;;;9.75;8.75;;;31.80;61.80;;;;;;5071178;28;20197;-59
2021/06/10 09:27:02;;;;;;;11.48;8.30;;;31.40;63.40;;;;;;5035753;28;20208;-59
2021/06/10 09:29:36;;;;;;;22.27;8.90;;;31.30;65.00;;;;;;5070971;28;20254;-58
2021/06/10 09:32:02;;;;;;;10.38;8.70;;;31.20;65.00;;;;;;5071278;28;20225;-59
2021/06/10 09:34:42;;;;;;;8.98;8.18;;;30.90;65.70;;;;;;5070718;28;20669;-59
2021/06/10 09:37:08;;;;;;;9.70;7.25;;;30.60;66.40;;;;;;5071380;28;20208;-59
2021/06/10 09:39:47;;;;;;;13.50;9.30;;;30.50;67.70;;;;;;5070845;28;20205;-58
2021/06/10 09:42:15;;;;;;;9.88;8.98;;;30.30;69.00;;;;;;5070979;28;20481;-59
2021/06/10 09:44:44;;;;;;;9.43;8.25;;;30.20;69.60;;;;;;5070829;28;20205;-59
2021/06/10 09:47:11;;;;;;;8.75;7.85;;;30.20;70.20;;;;;;5070965;28;20215;-59
2021/06/10 09:49:38;;;;;;;9.45;8.45;;;29.90;71.80;;;;;;5070896;28;20205;-59
2021/06/10 09:52:05;;;;;;;8.70;7.90;;;29.70;72.40;;;;;;5071180;28;20736;-59
2021/06/10 09:54:43;;;;;;;8.90;8.18;;;29.70;72.30;;;;;;5071050;28;20205;-59
2021/06/10 09:57:11;;;;;;;8.63;7.82;;;29.60;73.30;;;;;;5071273;28;20204;-58
2021/06/10 09:59:57;;;;;;;8.35;7.50;;;29.50;73.30;;;;;;5070836;28;20204;-58
2021/06/10 10:02:25;;;;;;;8.60;7.70;;;29.60;73.40;;;;;;5070960;28;20229;-58
2021/06/10 10:05:03;;;;;;;8.57;7.50;;;29.70;72.40;;;;;;5070568;28;20209;-59
2021/06/10 10:07:31;;;;;;;8.70;7.90;;;29.70;72.30;;;;;;5070791;28;20209;-58
2021/06/10 10:09:58;;;;;;;8.88;7.95;;;29.80;71.40;;;;;;5070492;28;20212;-60
2021/06/10 10:12:29;;;;;;;8.43;7.43;;;29.70;71.20;;;;;;5070682;28;20588;-57
2021/06/10 10:14:58;;;;;;;7.38;6.68;;;29.60;72.20;;;;;;5070768;28;20248;-57
2021/06/10 10:17:26;;;;;;;8.35;6.60;;;29.60;72.20;;;;;;5070836;28;20274;-58
2021/06/10 10:19:53;;;;;;;6.68;6.10;;;29.60;72.20;;;;;;5070650;28;20205;-58
2021/06/10 10:22:19;;;;;;;7.70;6.70;;;29.50;70.60;;;;;;5070450;28;20232;-58
2021/06/10 10:24:46;;;;;;;7.97;7.00;;;29.20;71.00;;;;;;5070377;28;20223;-58
2021/06/10 10:27:13;;;;;;;7.10;6.50;;;28.90;73.70;;;;;;5070143;28;20319;-59
2021/06/10 10:29:40;;;;;;;7.72;7.03;;;28.90;73.40;;;;;;5070213;28;20277;-59
2021/06/10 10:32:10;;;;;;;7.18;6.47;;;28.90;73.90;;;;;;5070458;28;20221;-58
2021/06/10 10:34:38;;;;;;;7.57;6.88;;;29.00;72.80;;;;;;5070502;28;20205;-59
2021/06/10 10:37:26;;;;;;;7.93;7.15;;;29.10;74.10;;;;;;5070511;28;20254;-59
2021/06/10 10:39:54;;;;;;;7.85;6.55;;;29.10;71.80;;;;;;5070459;28;20227;-58
2021/06/10 10:42:35;;;;;;;8.00;7.15;;;29.10;73.70;;;;;;5070488;28;20287;-58
2021/06/10 10:45:12;;;;;;;7.63;6.72;;;29.10;73.60;;;;;;5070546;28;20342;-58
2021/06/10 10:47:56;;;;;;;8.25;7.43;;;29.20;73.70;;;;;;5073285;28;20629;-59
2021/06/10 10:50:33;;;;;;;8.68;7.75;;;29.20;72.80;;;;;;5074019;28;20204;-59
2021/06/10 10:53:00;;;;;;;9.25;8.35;;;29.10;71.80;;;;;;5073953;28;20229;-58
2021/06/10 10:55:29;;;;;;;8.43;7.63;;;29.00;71.70;;;;;;5074708;28;20209;-58
2021/06/10 10:58:16;;;;;;;8.93;8.13;;;29.10;72.50;;;;;;5074438;28;20546;-57
2021/06/10 11:00:54;;;;;;;9.88;8.88;;;29.20;73.00;;;;;;5074077;28;20575;-57
2021/06/10 11:03:28;;;;;;;9.02;8.23;;;29.30;71.90;;;;;;5073941;28;20688;-58
2021/06/10 11:05:56;;;;;;;11.98;8.55;;;29.30;74.90;;;;;;5074082;28;20284;-59
2021/06/10 11:08:23;;;;;;;10.95;9.85;;;29.50;75.20;;;;;;5073954;28;20212;-58
2021/06/10 11:11:02;;;;;;;10.55;9.55;;;29.60;75.00;;;;;;5073912;28;20669;-58
2021/06/10 11:13:46;;;;;;;10.75;8.18;;;29.70;74.40;;;;;;5073305;28;20229;-59
2021/06/10 11:16:13;;;;;;;10.60;8.52;;;29.70;74.70;;;;;;5073798;28;20239;-58
2021/06/10 11:18:52;;;;;;;12.63;9.15;;;30.00;75.30;;;;;;5073423;28;20209;-58
2021/06/10 11:21:51;;;;;;;10.55;9.65;;;29.90;74.80;;;;;;5073331;28;20604;-58
2021/06/10 11:24:21;;;;;;;10.48;9.25;;;29.60;75.10;;;;;;5073535;28;20686;-58
2021/06/10 11:26:53;;;;;;;10.30;9.30;;;29.50;74.90;;;;;;5073693;28;20687;-59
2021/06/10 11:29:19;;;;;;;8.65;7.85;;;29.50;75.10;;;;;;5073457;28;20209;-58
2021/06/10 11:32:19;;;;;;;9.75;8.65;;;29.70;74.50;;;;;;5073402;28;20459;-59
2021/06/10 11:34:52;;;;;;;9.13;7.85;;;29.90;72.50;;;;;;5073166;28;20566;-58
2021/06/10 11:37:22;;;;;;;9.70;8.63;;;30.10;71.30;;;;;;5073350;28;20300;-59
2021/06/10 11:39:48;;;;;;;9.20;8.35;;;30.30;71.50;;;;;;5073040;28;20667;-58
2021/06/10 11:42:15;;;;;;;8.80;7.28;;;30.50;71.70;;;;;;5072995;28;20286;-59
2021/06/10 11:44:47;;;;;;;9.98;8.98;;;30.50;70.20;;;;;;5072836;28;20209;-58
2021/06/10 11:47:24;;;;;;;8.75;7.95;;;30.50;71.00;;;;;;5073248;28;20661;-59
2021/06/10 11:49:52;;;;;;;9.88;6.80;;;30.40;70.20;;;;;;5073591;28;20303;-58
2021/06/10 11:52:18;;;;;;;11.07;7.97;;;30.30;69.30;;;;;;5072987;28;20358;-58
2021/06/10 11:55:09;;;;;;;7.93;6.93;;;30.30;69.00;;;;;;5072752;28;20212;-58
2021/06/10 11:57:36;;;;;;;10.65;8.90;;;30.40;69.40;;;;;;5072476;28;20209;-59
2021/06/10 12:00:06;;;;;;;8.85;7.95;;;30.50;71.30;;;;;;5073095;28;20209;-58
2021/06/10 12:02:32;;;;;;;8.20;7.38;;;30.30;70.90;;;;;;5072805;28;20315;-58
2021/06/10 12:05:20;;;;;;;9.02;8.13;;;30.10;69.30;;;;;;5072739;28;20212;-58
2021/06/10 12:07:46;;;;;;;8.52;7.72;;;30.20;70.00;;;;;;5072993;28;20239;-59
2021/06/10 12:10:20;;;;;;;7.88;6.93;;;30.40;69.00;;;;;;5072932;28;20215;-58
2021/06/10 12:12:48;;;;;;;7.30;6.13;;;30.30;67.80;;;;;;5072771;28;20260;-59
2021/06/10 12:15:29;;;;;;;8.38;7.47;;;30.30;69.20;;;;;;5072438;28;20215;-58
2021/06/10 12:17:58;;;;;;;7.43;6.65;;;30.50;67.50;;;;;;5072608;28;20265;-59
2021/06/10 12:20:28;;;;;;;8.82;7.93;;;30.80;66.60;;;;;;5072743;28;20228;-59
2021/06/10 12:22:54;;;;;;;8.98;7.93;;;31.20;68.10;;;;;;5072813;28;20236;-58
2021/06/10 12:25:24;;;;;;;8.32;7.57;;;31.30;69.00;;;;;;5072636;28;20254;-58
2021/06/10 12:27:52;;;;;;;8.73;7.78;;;31.50;68.90;;;;;;5072788;28;20209;-59
2021/06/10 12:30:23;;;;;;;9.00;7.72;;;31.50;67.70;;;;;;5072266;28;20582;-59
2021/06/10 12:32:49;;;;;;;8.55;7.60;;;31.40;66.30;;;;;;5071915;28;20263;-58
2021/06/10 12:35:19;;;;;;;9.32;7.70;;;31.30;66.50;;;;;;5072234;28;20235;-58
2021/06/10 12:37:52;;;;;;;7.20;6.47;;;31.40;66.60;;;;;;5072114;28;20215;-58
2021/06/10 12:40:18;;;;;;;6.65;5.90;;;31.50;66.40;;;;;;5072197;28;20211;-59
2021/06/10 12:43:09;;;;;;;6.90;6.30;;;31.60;63.70;;;;;;5072220;28;20472;-58
2021/06/10 12:45:37;;;;;;;11.10;10.00;;;31.60;65.50;;;;;;5071842;28;20211;-59
2021/06/10 12:48:19;;;;;;;7.65;6.95;;;31.60;64.10;;;;;;5071802;28;20637;-58
2021/06/10 12:50:46;;;;;;;9.55;6.93;;;31.60;63.60;;;;;;5071971;28;20627;-58